Aérodrome :
LOGIN :

S'inscrire | Disclaimer

   EN    FR    IT 

 










Légende :    VFR   VFR Marginal   IFR   IFR Intensif   IFR Très Intensif
Visi : 
Plafond : 
>= 8 km
>= 3000ft
5 à 8 km
1000 à 3000 ft
1500m à 5 km
500 à 1000 ft
800 à 1500m
200 à 500 ft
< 800m
< 200 ft
Symboles :   Orages  Brouillard  Fortes neiges  Fortes précipitations  Vent > 20 kt
SIGMETs :   Divers  Orages  Givrage  Turbulence  Onde Orograph.  Cendres Volcan.






- Altitude de l'aérodrome : 529 ft
- Code IATA : CHR


LFLX - Chateauroux

DERNIER METAR :
  • 110230Z AUTO 20008KT 9999 SCT040 OVC058 06/02 Q1015 TEMPO 3000 -RA BKN012

METARs EXPIRÉS :
  • 110200Z AUTO 19008KT 9999 SCT038 BKN047 BKN056 06/03 Q1016 NOSIG
  • 110130Z AUTO 18007KT 9999 BKN047 OVC100 06/03 Q1016 NOSIG
  • 110100Z AUTO 18006KT 9999 OVC045 05/04 Q1016 NOSIG
  • 110030Z AUTO 19007KT 9999 BKN049/// BKN070/// OVC080/// ///TCU 05/04 Q1017 BECMG BKN030
  • 110000Z AUTO 18007KT 9999 ///TCU 05/03 Q1017 BECMG BKN030

TAF TAF LFLX
Valide du 11 à 00h jusqu'au 12 à 06h UTC


102300Z 1100/1206 20010KT 9999 BKN030
TEMPO 1104/1111 3000 -RA BKN012
PROB40
TEMPO 1106/1110 RA BKN007
TEMPO 1116/1120 24015G30KT SHRA SCT020TCU BKN040
PROB30
TEMPO 1116/1118 SCT020CB
BECMG 1200/1203 CAVOK
TEMPO 1203/1206 3000 BR BKN008



MET'MAP, la Météo Aéronautique d'un coup d'oeil ! - Copyright ORBIFLY Décembre 2007 - Disclaimer

ORBIFLY MET'MAP TEAM :

Programmation & Développement : Alexandra Zaïnal
Sur une idée originale de : Baudouin d'Aumeries
Assistance à la programmation : Marc-Olivier Méhu
Soutien technique & logistique : Manuel Goepfert

Contact : metmap@orbifly.com




SOURCES & CREDITS :

   NOAA